Etusivu
METAR-TAF:

METAR-TAF

Lentoasemat :

Pamplona, Espanja

Leveyspiiri: 42-46N, Pituuspiiri: 001-38W, korkeus merenpinnasta: 459 m

Tämänhetkinen sää

Tämä raportti tehtiin 38 minuuttia sitten, kello 21.00 UTC
Tuuli 7 kn luoteesta, vaihdellen lännen/luoteen ja pohjoisen välillä
Lämpötila 18°C
Kosteus 83%
Ilmanpaine 1019 hPa
Näkyvyys 10 km tai enemmän
Muutamia pilviä 3800 ft:n korkeudessa

METAR: LEPP 222100Z 32007KT 290V350 9999 FEW038 18/15 Q1019

Aika: 23:38 (21:38 UTC)

Sääennuste

Tämä raportti tehtiin 1 tunti ja 38 minuuttia sitten, kello 20.00 UTC
Ennuste voimassa 22. päivästä klo 21 UTC - 23. päivään klo 21 UTC
Tuuli 9 kn pohjoisen/luoteesta
Näkyvyys 10 km tai enemmän
Muutamia pilviä 3500 ft:n korkeudessa
Todennäköisyys 30% :
Ajoittain
23. päivästä klo 00 UTC - 23. päivään klo 07 UTC
Näkyvyys: 1500 m
sumuhattaroita

TAF: LEPP 222000Z 2221/2321 34009KT 9999 FEW035 TX31/2315Z TN14/2305Z PROB30 TEMPO 2300/2307 1500 BCFG

Säähavainnot ja -ennusteet yli 4000 lentoasemalta (METAR- ja TAF-raportit).

Käytössä olevat sääasemat on merkitty karttaan keltaisilla ja punaisilla pisteillä.

Aseta hiiri pisteen päälle nähdäksesi sääaseman nimen.

Klikkaa sitten nähdäksesi säähavainnot ja -ennusteet.

Kartan vaihtaminen: klikkaa mustalla rastilla varustettuja vihreitä pisteitä, niin voit zoomata sisään; viivalla varustettua vihreää pistettä, niin voit zoomata ulos tai vihreitä nuolia, niin pääset viereisille kartoille.


METAR-TAF: